Time;durP1;ratioP1;P1;durP2;ratioP2;P2;SDS_P1;SDS_P2;PMS_P1;PMS_P2;Temp;Humidity;BMP_temperature;BMP_pressure;BME280_temperature;BME280_humidity;BME280_pressure;Samples;Min_cycle;Max_cycle;Signal;HPM_P1;HPM_P2
2023/03/30 00:02:45;;;;;;;19.33;11.73;;;11.40;99.90;;;;;;5052844;28;20611;-84
2023/03/30 00:05:29;;;;;;;17.13;10.98;;;;;;;;;;5051210;28;20036;-85
2023/03/30 00:08:17;;;;;;;15.23;11.00;;;;;;;;;;5052323;28;20210;-85
2023/03/30 00:11:14;;;;;;;17.13;10.90;;;11.50;99.90;;;;;;5051714;28;20040;-85
2023/03/30 00:13:59;;;;;;;20.35;11.32;;;;;;;;;;5039720;28;20114;-85
2023/03/30 00:16:43;;;;;;;16.00;10.90;;;;;;;;;;5051780;28;20083;-85
2023/03/30 00:19:28;;;;;;;19.77;11.35;;;;;;;;;;5052099;28;20067;-85
2023/03/30 00:22:12;;;;;;;15.63;9.52;;;;;;;;;;5052108;28;20440;-85
2023/03/30 00:24:57;;;;;;;21.58;10.95;;;;;;;;;;5052138;28;20089;-85
2023/03/30 00:27:41;;;;;;;15.23;11.30;;;;;;;;;;5038890;28;20538;-84
2023/03/30 00:30:26;;;;;;;17.08;10.23;;;;;;;;;;5050520;28;20118;-85
2023/03/30 00:33:11;;;;;;;18.02;10.07;;;;;;;;;;5051325;28;20183;-85
2023/03/30 00:35:57;;;;;;;11.88;9.40;;;11.40;99.90;;;;;;5051000;28;20550;-85
2023/03/30 00:38:42;;;;;;;15.57;10.15;;;;;;;;;;5051462;28;20090;-85
2023/03/30 00:41:27;;;;;;;16.30;8.77;;;;;;;;;;5051557;28;20492;-85
2023/03/30 00:44:49;;;;;;;17.60;10.50;;;11.40;99.90;;;;;;5051701;28;20079;-85
2023/03/30 00:47:39;;;;;;;14.45;7.90;;;11.50;99.90;;;;;;5050322;28;20114;-85
2023/03/30 00:50:33;;;;;;;15.45;8.55;;;11.50;99.90;;;;;;5051936;28;20401;-86
2023/03/30 00:53:26;;;;;;;13.32;7.88;;;11.50;99.90;;;;;;5039966;28;20040;-85
2023/03/30 00:56:15;;;;;;;12.85;7.47;;;11.50;99.90;;;;;;5051598;28;20044;-85
2023/03/30 00:59:01;;;;;;;11.88;7.25;;;11.50;99.90;;;;;;5051679;28;20404;-86
2023/03/30 01:01:49;;;;;;;13.20;8.15;;;;;;;;;;5047389;28;20126;-85
2023/03/30 01:04:36;;;;;;;10.50;6.70;;;;;;;;;;5050638;28;20489;-85
2023/03/30 01:07:23;;;;;;;13.77;6.72;;;;;;;;;;5050654;28;20451;-85
2023/03/30 01:10:08;;;;;;;9.18;6.97;;;;;;;;;;5064203;28;20063;-85
2023/03/30 01:12:53;;;;;;;12.52;7.05;;;;;;;;;;5051724;28;20159;-85
2023/03/30 01:15:54;;;;;;;11.05;6.40;;;11.60;99.90;;;;;;5060426;28;20500;-85
2023/03/30 01:19:02;;;;;;;12.65;6.93;;;11.60;99.90;;;;;;5049255;28;20064;-85
2023/03/30 01:22:05;;;;;;;11.60;6.78;;;11.60;99.90;;;;;;5049748;28;20159;-84
2023/03/30 01:25:01;;;;;;;8.65;6.05;;;11.70;99.90;;;;;;5050983;28;20152;-85
2023/03/30 01:28:04;;;;;;;12.27;6.38;;;11.70;99.90;;;;;;5038546;28;20110;-85
2023/03/30 01:31:26;;;;;;;12.10;5.72;;;11.90;99.90;;;;;;5050733;28;20094;-85
2023/03/30 01:34:30;;;;;;;12.30;5.72;;;11.70;99.90;;;;;;5050959;28;20219;-85
2023/03/30 01:37:39;;;;;;;11.13;5.63;;;11.80;99.90;;;;;;5046529;28;20036;-85
2023/03/30 01:40:30;;;;;;;11.60;5.90;;;11.80;99.90;;;;;;5051002;28;20580;-85
2023/03/30 01:43:27;;;;;;;12.98;5.93;;;11.80;99.90;;;;;;5051280;28;20118;-85
2023/03/30 01:46:29;;;;;;;11.27;5.57;;;12.00;99.90;;;;;;5037554;28;20114;-85
2023/03/30 01:49:35;;;;;;;11.10;5.75;;;11.80;99.90;;;;;;5049483;28;20036;-85
2023/03/30 01:52:19;;;;;;;11.30;5.63;;;;;;;;;;5038957;28;20035;-85
2023/03/30 01:55:08;;;;;;;12.93;5.70;;;11.90;99.90;;;;;;5051131;28;20075;-85
2023/03/30 01:58:09;;;;;;;8.32;5.03;;;11.80;99.90;;;;;;5044333;28;20730;-85
2023/03/30 02:00:54;;;;;;;11.18;6.75;;;11.80;99.90;;;;;;5049608;28;20052;-85
2023/03/30 02:03:41;;;;;;;13.50;5.50;;;11.90;99.90;;;;;;5063712;28;20483;-85
2023/03/30 02:06:42;;;;;;;8.38;5.38;;;11.80;99.90;;;;;;5053064;28;20140;-85
2023/03/30 02:09:28;;;;;;;9.68;5.35;;;11.90;99.90;;;;;;5055037;28;20040;-85
2023/03/30 02:12:12;;;;;;;13.77;5.55;;;11.80;99.90;;;;;;5041715;28;20164;-85
2023/03/30 02:15:00;;;;;;;10.82;6.18;;;11.80;99.90;;;;;;5053278;28;20079;-85
2023/03/30 02:17:47;;;;;;;14.60;5.88;;;;;;;;;;5053091;28;20091;-85
2023/03/30 02:20:32;;;;;;;14.27;6.90;;;;;;;;;;5054670;28;20044;-84
2023/03/30 02:23:19;;;;;;;9.77;5.22;;;11.80;99.90;;;;;;5053554;28;20044;-85
2023/03/30 02:26:06;;;;;;;10.02;5.45;;;;;;;;;;5043016;28;20043;-85
2023/03/30 02:28:51;;;;;;;13.18;6.60;;;;;;;;;;5066722;28;20032;-85
2023/03/30 02:31:36;;;;;;;11.68;5.50;;;;;;;;;;5064572;28;20032;-85
2023/03/30 02:34:24;;;;;;;10.57;5.40;;;;;;;;;;5040982;28;20032;-86
2023/03/30 02:37:37;;;;;;;12.57;5.93;;;11.80;99.90;;;;;;5052986;28;20112;-85
2023/03/30 02:40:21;;;;;;;11.55;5.40;;;;;;;;;;5053335;28;20044;-85
2023/03/30 02:43:43;;;;;;;11.13;5.47;;;11.80;99.90;;;;;;5041927;28;20055;-86
2023/03/30 02:46:54;;;;;;;10.70;5.72;;;11.80;99.90;;;;;;5042508;28;20043;-85
2023/03/30 02:49:56;;;;;;;9.65;5.53;;;11.90;99.90;;;;;;5039660;28;20079;-85
2023/03/30 02:52:49;;;;;;;11.43;5.35;;;11.80;99.90;;;;;;5052801;28;20040;-87
2023/03/30 02:55:40;;;;;;;9.00;5.35;;;11.80;99.90;;;;;;5053611;28;20039;-86
2023/03/30 02:58:28;;;;;;;11.00;5.65;;;;;;;;;;5041661;28;20090;-85
2023/03/30 03:01:46;;;;;;;9.75;5.38;;;11.80;99.90;;;;;;5052771;28;20547;-86
2023/03/30 03:04:33;;;;;;;8.73;4.90;;;;;;;;;;5053779;28;20571;-85
2023/03/30 03:07:18;;;;;;;10.60;4.78;;;11.70;99.90;;;;;;5053859;28;20063;-85
2023/03/30 03:10:04;;;;;;;8.43;4.60;;;;;;;;;;5053249;28;20044;-85
2023/03/30 03:12:49;;;;;;;10.82;4.65;;;;;;;;;;5060956;28;20085;-85
2023/03/30 03:15:34;;;;;;;8.70;4.18;;;;;;;;;;5042456;28;20078;-85
2023/03/30 03:18:18;;;;;;;9.80;4.50;;;;;;;;;;5051730;28;20083;-85
2023/03/30 03:21:03;;;;;;;8.98;5.05;;;;;;;;;;5052144;28;20108;-85
2023/03/30 03:23:47;;;;;;;16.33;4.70;;;;;;;;;;5039552;28;20401;-86
2023/03/30 03:26:32;;;;;;;6.75;4.88;;;;;;;;;;5053140;28;20413;-85
2023/03/30 03:29:17;;;;;;;12.02;5.63;;;;;;;;;;5052868;28;20052;-85
2023/03/30 03:32:01;;;;;;;8.80;4.05;;;;;;;;;;5051811;28;20094;-85
2023/03/30 03:34:46;;;;;;;9.60;4.70;;;;;;;;;;5066285;28;20040;-86
2023/03/30 03:37:30;;;;;;;10.55;4.60;;;;;;;;;;5066273;28;20039;-85
2023/03/30 03:40:15;;;;;;;8.38;4.65;;;;;;;;;;5053098;28;20125;-85
2023/03/30 03:43:00;;;;;;;10.52;4.40;;;;;;;;;;5050833;28;20066;-85
2023/03/30 03:45:46;;;;;;;10.48;5.00;;;11.50;99.90;;;;;;5053006;28;20032;-85
2023/03/30 03:48:30;;;;;;;8.27;4.40;;;;;;;;;;5051920;28;20143;-86
2023/03/30 03:51:15;;;;;;;8.68;3.83;;;;;;;;;;5041561;28;20146;-85
2023/03/30 03:54:00;;;;;;;9.07;4.50;;;;;;;;;;5051334;28;20087;-85
2023/03/30 03:56:45;;;;;;;14.27;4.75;;;;;;;;;;5051837;28;20543;-86
2023/03/30 03:59:29;;;;;;;7.95;4.43;;;;;;;;;;5063923;28;20048;-85
2023/03/30 04:02:15;;;;;;;12.73;3.83;;;;;;;;;;5052492;28;20516;-86
2023/03/30 04:04:59;;;;;;;6.53;4.03;;;;;;;;;;5052116;28;20044;-86
2023/03/30 04:07:47;;;;;;;9.45;3.88;;;;;;;;;;5065675;28;20166;-86
2023/03/30 04:10:32;;;;;;;10.52;3.97;;;;;;;;;;5052755;28;20111;-85
2023/03/30 04:13:16;;;;;;;8.23;3.50;;;;;;;;;;5051016;28;20039;-85
2023/03/30 04:16:01;;;;;;;13.05;3.67;;;;;;;;;;5050826;28;20071;-85
2023/03/30 04:18:46;;;;;;;10.75;3.88;;;;;;;;;;5039432;28;20059;-86
2023/03/30 04:21:30;;;;;;;11.27;3.22;;;;;;;;;;5052329;28;20068;-85
2023/03/30 04:24:16;;;;;;;13.77;3.72;;;;;;;;;;5051967;28;20048;-85
2023/03/30 04:27:01;;;;;;;9.73;4.47;;;;;;;;;;5051729;28;20067;-85
2023/03/30 04:29:46;;;;;;;17.42;4.10;;;;;;;;;;5052385;28;20095;-85
2023/03/30 04:32:33;;;;;;;11.10;3.53;;;;;;;;;;5049750;28;20508;-85
2023/03/30 04:35:18;;;;;;;10.45;3.72;;;;;;;;;;5048516;28;20397;-85
2023/03/30 04:38:03;;;;;;;12.60;4.35;;;;;;;;;;5050628;28;20114;-85
2023/03/30 04:40:48;;;;;;;7.68;3.42;;;11.70;99.90;;;;;;5037625;28;20052;-85
2023/03/30 04:43:34;;;;;;;8.00;3.33;;;;;;;;;;5064858;28;20067;-86
2023/03/30 04:46:18;;;;;;;6.45;3.17;;;;;;;;;;5051503;28;20048;-85
2023/03/30 04:49:03;;;;;;;9.52;3.35;;;;;;;;;;5051397;28;20027;-85
2023/03/30 04:51:48;;;;;;;9.88;3.47;;;;;;;;;;5051818;28;20093;-85
2023/03/30 04:54:33;;;;;;;6.93;3.22;;;;;;;;;;5051677;28;20035;-85
2023/03/30 04:57:17;;;;;;;8.05;2.63;;;;;;;;;;5057856;28;20059;-85
2023/03/30 05:00:04;;;;;;;8.63;2.97;;;;;;;;;;5056038;28;20089;-85
2023/03/30 05:02:49;;;;;;;7.22;3.00;;;;;;;;;;5036419;28;20485;-85
2023/03/30 05:05:33;;;;;;;8.57;3.08;;;;;;;;;;5039831;28;20068;-85
2023/03/30 05:08:18;;;;;;;11.18;3.00;;;;;;;;;;5036877;28;20643;-86
2023/03/30 05:11:03;;;;;;;8.27;3.00;;;;;;;;;;5044641;28;20039;-85
2023/03/30 05:13:50;;;;;;;13.27;3.30;;;12.20;99.90;;;;;;5036449;28;20036;-85
2023/03/30 05:16:36;;;;;;;9.70;3.15;;;;;;;;;;5035101;28;20076;-86
2023/03/30 05:19:20;;;;;;;9.15;3.47;;;;;;;;;;5037174;28;20690;-85
2023/03/30 05:22:05;;;;;;;7.15;3.17;;;;;;;;;;5035797;28;20041;-86
2023/03/30 05:24:51;;;;;;;7.55;3.70;;;;;;;;;;5041019;28;20040;-85
2023/03/30 05:27:35;;;;;;;15.20;4.28;;;;;;;;;;5044772;28;20079;-85
2023/03/30 05:30:20;;;;;;;13.15;5.03;;;;;;;;;;5037155;28;20087;-85
2023/03/30 05:33:05;;;;;;;10.43;3.92;;;;;;;;;;5038035;28;20043;-86
2023/03/30 05:35:50;;;;;;;9.50;4.45;;;;;;;;;;5035601;28;20074;-85
2023/03/30 05:38:35;;;;;;;7.85;3.90;;;;;;;;;;5042372;28;20052;-85
2023/03/30 05:41:21;;;;;;;12.07;3.80;;;;;;;;;;5037958;28;20044;-85
2023/03/30 05:44:06;;;;;;;9.00;3.83;;;;;;;;;;5036319;28;20052;-87
2023/03/30 05:46:50;;;;;;;8.30;3.97;;;;;;;;;;5040896;28;20094;-86
2023/03/30 05:49:35;;;;;;;10.43;4.20;;;;;;;;;;5052041;28;20060;-88
2023/03/30 05:52:20;;;;;;;7.72;4.18;;;;;;;;;;5033941;28;20441;-86
2023/03/30 05:55:05;;;;;;;8.73;4.10;;;;;;;;;;5038690;28;20504;-86
2023/03/30 05:57:50;;;;;;;10.30;4.28;;;;;;;;;;5044122;28;20753;-84
2023/03/30 06:00:36;;;;;;;11.65;4.63;;;;;;;;;;5050568;28;20071;-85
2023/03/30 06:03:20;;;;;;;10.63;4.22;;;;;;;;;;5030464;28;20059;-86
2023/03/30 06:06:06;;;;;;;9.57;4.20;;;;;;;;;;5042287;28;20036;-85
2023/03/30 06:08:51;;;;;;;9.48;3.47;;;;;;;;;;5038704;28;20508;-85
2023/03/30 06:11:35;;;;;;;13.65;4.40;;;;;;;;;;5046130;28;20090;-85
2023/03/30 06:14:20;;;;;;;9.85;3.45;;;;;;;;;;5031368;28;20064;-86
2023/03/30 06:17:04;;;;;;;8.30;3.80;;;;;;;;;;5041531;28;20055;-85
2023/03/30 06:19:49;;;;;;;9.65;5.50;;;;;;;;;;5034222;28;20065;-85
2023/03/30 06:22:34;;;;;;;12.10;4.25;;;12.00;99.90;;;;;;5044365;28;20040;-85
2023/03/30 06:25:19;;;;;;;8.75;4.45;;;;;;;;;;5047643;28;20041;-87
2023/03/30 06:28:04;;;;;;;11.38;4.25;;;;;;;;;;5035218;28;20139;-84
2023/03/30 06:30:48;;;;;;;9.05;4.03;;;;;;;;;;5049180;28;20090;-84
2023/03/30 06:33:33;;;;;;;12.60;5.20;;;;;;;;;;5040731;28;20546;-83
2023/03/30 06:36:20;;;;;;;13.02;4.57;;;;;;;;;;5035010;28;20071;-86
2023/03/30 06:39:05;;;;;;;9.20;3.97;;;;;;;;;;5036478;28;20528;-84
2023/03/30 06:41:55;;;;;;;11.70;3.65;;;;;;;;;;5038480;28;20064;-85
2023/03/30 06:44:40;;;;;;;13.25;4.20;;;;;;;;;;5041186;28;20172;-84
2023/03/30 06:47:25;;;;;;;7.95;3.45;;;;;;;;;;5036855;28;20048;-84
2023/03/30 06:50:10;;;;;;;7.72;2.90;;;;;;;;;;5043784;28;20059;-85
2023/03/30 06:52:55;;;;;;;8.88;2.78;;;;;;;;;;5040966;28;20113;-84
2023/03/30 06:55:39;;;;;;;11.23;3.58;;;;;;;;;;5058284;28;20056;-84
2023/03/30 06:58:26;;;;;;;6.80;2.70;;;12.80;99.90;;;;;;5038675;28;20057;-85
2023/03/30 07:01:14;;;;;;;9.88;2.90;;;;;;;;;;5038124;28;20032;-84
2023/03/30 07:03:59;;;;;;;12.27;2.95;;;;;;;;;;5038169;28;20045;-85
2023/03/30 07:06:46;;;;;;;16.85;4.20;;;;;;;;;;5039718;28;20059;-84
2023/03/30 07:09:30;;;;;;;14.07;2.58;;;;;;;;;;5053399;28;20443;-85
2023/03/30 07:12:15;;;;;;;11.70;4.35;;;;;;;;;;5044954;28;20456;-85
2023/03/30 07:14:59;;;;;;;12.38;3.70;;;;;;;;;;5052609;28;20039;-84
2023/03/30 07:17:44;;;;;;;8.50;2.45;;;;;;;;;;5040998;28;20103;-84
2023/03/30 07:20:29;;;;;;;8.88;3.25;;;;;;;;;;5039329;28;20115;-84
2023/03/30 07:23:15;;;;;;;14.93;3.33;;;;;;;;;;5036842;28;20443;-85
2023/03/30 07:26:00;;;;;;;11.93;3.28;;;;;;;;;;5034781;28;20107;-84
2023/03/30 07:28:45;;;;;;;12.93;3.65;;;;;;;;;;5048453;28;20098;-84
2023/03/30 07:31:29;;;;;;;12.68;3.20;;;;;;;;;;5037827;28;20071;-83
2023/03/30 07:34:16;;;;;;;17.75;4.47;;;12.60;99.90;;;;;;5035719;28;20108;-84
2023/03/30 07:37:00;;;;;;;10.70;3.10;;;;;;;;;;5036204;28;20072;-85
2023/03/30 07:39:45;;;;;;;13.85;3.70;;;;;;;;;;5034636;28;20068;-85
2023/03/30 07:42:30;;;;;;;11.27;3.90;;;;;;;;;;5048495;28;20539;-85
2023/03/30 07:45:15;;;;;;;16.52;4.20;;;;;;;;;;5048796;28;20072;-85
2023/03/30 07:47:59;;;;;;;17.55;3.83;;;;;;;;;;5037937;28;20052;-85
2023/03/30 07:50:44;;;;;;;16.95;4.85;;;;;;;;;;5054315;28;20079;-85
2023/03/30 07:53:29;;;;;;;19.13;3.53;;;;;;;;;;5041995;28;20495;-84
2023/03/30 07:56:14;;;;;;;15.80;4.50;;;;;;;;;;5049297;28;20142;-84
2023/03/30 07:58:58;;;;;;;18.95;4.25;;;;;;;;;;5045944;28;20044;-84
2023/03/30 08:01:43;;;;;;;17.65;4.03;;;;;;;;;;5038415;28;20064;-84
2023/03/30 08:04:28;;;;;;;22.80;5.22;;;;;;;;;;5051902;28;20443;-83
2023/03/30 08:07:13;;;;;;;17.98;4.25;;;;;;;;;;5060400;28;20405;-84
2023/03/30 08:09:58;;;;;;;14.07;3.33;;;;;;;;;;5058601;28;20041;-84
2023/03/30 08:12:42;;;;;;;21.33;3.70;;;;;;;;;;5036494;28;20039;-85
2023/03/30 08:15:29;;;;;;;19.77;3.78;;;;;;;;;;5034303;28;20060;-85
2023/03/30 08:18:14;;;;;;;17.85;3.67;;;;;;;;;;5036530;28;20060;-84
2023/03/30 08:20:59;;;;;;;17.65;3.35;;;;;;;;;;5034744;28;20144;-85
2023/03/30 08:23:43;;;;;;;20.30;4.40;;;;;;;;;;5032023;28;20044;-86
2023/03/30 08:26:29;;;;;;;17.45;3.47;;;;;;;;;;5041875;28;20111;-86
2023/03/30 08:29:15;;;;;;;16.83;4.13;;;;;;;;;;5046040;28;20068;-84
2023/03/30 08:32:00;;;;;;;24.20;4.40;;;;;;;;;;5042641;28;20036;-84
2023/03/30 08:34:45;;;;;;;21.48;4.78;;;;;;;;;;5038806;28;20044;-85
2023/03/30 08:37:30;;;;;;;20.80;5.45;;;;;;;;;;5054371;28;20505;-85
2023/03/30 08:40:15;;;;;;;19.05;3.90;;;;;;;;;;5057590;28;20076;-84
2023/03/30 08:43:11;;;;;;;25.60;6.18;;;12.00;99.90;;;;;;5058294;28;20033;-84
2023/03/30 08:45:59;;;;;;;18.83;4.25;;;;;;;;;;5041578;28;20060;-84
2023/03/30 08:48:45;;;;;;;26.48;4.55;;;;;;;;;;5044179;28;20043;-85
2023/03/30 08:51:32;;;;;;;20.42;4.45;;;;;;;;;;5043786;28;20158;-87
2023/03/30 08:54:18;;;;;;;18.83;3.95;;;;;;;;;;5040970;28;20079;-84
2023/03/30 08:57:10;;;;;;;21.00;4.25;;;;;;;;;;5042090;28;20155;-85
2023/03/30 09:00:05;;;;;;;25.58;3.92;;;;;;;;;;5045075;28;20136;-84
2023/03/30 09:02:57;;;;;;;28.45;3.95;;;12.10;99.90;;;;;;5037473;28;20048;-84
2023/03/30 09:05:51;;;;;;;22.17;4.57;;;12.30;99.90;;;;;;5043334;28;20716;-85
2023/03/30 09:08:36;;;;;;;21.15;3.95;;;;;;;;;;5039145;28;20056;-85
2023/03/30 09:11:29;;;;;;;29.67;5.07;;;;;;;;;;5046434;28;20048;-84
2023/03/30 09:14:28;;;;;;;16.38;3.35;;;12.50;99.90;;;;;;5036258;28;20079;-84
2023/03/30 09:17:20;;;;;;;20.40;3.58;;;;;;;;;;5034377;28;20062;-84
2023/03/30 09:20:12;;;;;;;19.15;3.42;;;12.60;99.90;;;;;;5042433;28;20060;-84
2023/03/30 09:22:59;;;;;;;29.73;4.95;;;12.60;99.90;;;;;;5038947;28;20607;-85
2023/03/30 09:25:44;;;;;;;15.13;2.95;;;;;;;;;;5046425;28;20137;-85
2023/03/30 09:28:29;;;;;;;16.27;3.33;;;;;;;;;;5043506;28;20044;-84
2023/03/30 09:31:24;;;;;;;18.25;3.75;;;13.10;99.90;;;;;;5037678;28;20082;-84
2023/03/30 09:34:12;;;;;;;16.90;4.20;;;;;;;;;;5045334;28;20078;-85
2023/03/30 09:37:03;;;;;;;24.08;4.25;;;13.20;99.90;;;;;;5044499;28;20036;-85
2023/03/30 09:39:49;;;;;;;16.05;3.58;;;;;;;;;;5044119;28;20518;-85
2023/03/30 09:42:37;;;;;;;18.33;3.70;;;;;;;;;;5051327;28;20072;-85
2023/03/30 09:45:27;;;;;;;20.88;3.50;;;13.40;99.90;;;;;;5048579;28;20163;-85
2023/03/30 09:48:11;;;;;;;18.75;3.47;;;;;;;;;;5050860;28;20040;-84
2023/03/30 09:50:56;;;;;;;22.25;3.72;;;;;;;;;;5048753;28;20184;-85
2023/03/30 09:53:42;;;;;;;16.65;3.40;;;13.40;99.90;;;;;;5048935;28;20072;-86
2023/03/30 09:56:28;;;;;;;15.30;3.15;;;;;;;;;;5052912;28;20083;-85
2023/03/30 09:59:20;;;;;;;16.40;3.60;;;;;;;;;;5062597;28;20087;-86
2023/03/30 10:02:11;;;;;;;16.55;3.90;;;13.30;99.90;;;;;;5039720;28;20094;-86
2023/03/30 10:05:01;;;;;;;22.70;3.90;;;13.10;99.90;;;;;;5050413;28;20040;-85
2023/03/30 10:07:52;;;;;;;15.10;3.75;;;;;;;;;;5050009;28;20078;-86
2023/03/30 10:10:38;;;;;;;15.55;3.50;;;13.00;99.90;;;;;;5042503;28;20533;-84
2023/03/30 10:13:30;;;;;;;19.60;5.32;;;;;;;;;;5037927;28;20040;-84
2023/03/30 10:16:37;;;;;;;17.60;3.15;;;13.10;99.90;;;;;;5041274;28;20405;-84
2023/03/30 10:19:23;;;;;;;21.30;3.72;;;;;;;;;;5038717;28;20056;-85
2023/03/30 10:22:21;;;;;;;14.73;2.75;;;13.00;99.90;;;;;;5042762;28;20052;-85
2023/03/30 10:25:16;;;;;;;18.02;3.83;;;13.00;99.90;;;;;;5035741;28;20037;-84
2023/03/30 10:28:03;;;;;;;14.13;3.60;;;12.90;99.90;;;;;;5041437;28;20067;-84
2023/03/30 10:30:54;;;;;;;18.75;3.95;;;13.00;99.90;;;;;;5037291;28;20147;-84
2023/03/30 10:33:42;;;;;;;17.80;3.75;;;13.00;99.90;;;;;;5038514;28;20111;-84
2023/03/30 10:36:33;;;;;;;17.25;3.42;;;13.00;99.90;;;;;;5040034;28;20443;-84
2023/03/30 10:39:29;;;;;;;11.63;3.33;;;;;;;;;;5042935;28;20136;-84
2023/03/30 10:42:17;;;;;;;14.93;3.58;;;13.10;99.90;;;;;;5038856;28;20101;-84
2023/03/30 10:45:04;;;;;;;15.27;2.85;;;13.10;99.90;;;;;;5041095;28;20449;-84
2023/03/30 10:47:52;;;;;;;15.88;3.47;;;;;;;;;;5036952;28;20044;-85
2023/03/30 10:50:50;;;;;;;13.48;3.53;;;13.30;99.90;;;;;;5051023;28;20072;-83
2023/03/30 10:53:41;;;;;;;19.98;2.75;;;;;;;;;;5049822;28;20036;-84
2023/03/30 10:56:29;;;;;;;21.35;3.83;;;13.30;99.90;;;;;;5050235;28;20059;-84
2023/03/30 10:59:17;;;;;;;14.98;3.70;;;;;;;;;;5048364;28;20105;-85
2023/03/30 11:02:20;;;;;;;15.82;3.35;;;13.40;99.90;;;;;;5040696;28;20040;-85
2023/03/30 11:05:18;;;;;;;19.25;3.35;;;13.40;99.90;;;;;;5038661;28;20453;-84
2023/03/30 11:08:06;;;;;;;15.95;3.70;;;13.40;99.90;;;;;;5049564;28;20130;-84
2023/03/30 11:10:56;;;;;;;15.60;3.60;;;13.40;99.90;;;;;;5043103;28;20035;-84
2023/03/30 11:13:48;;;;;;;18.92;3.15;;;13.40;99.90;;;;;;5040073;28;20485;-84
2023/03/30 11:16:46;;;;;;;17.77;4.18;;;13.50;99.90;;;;;;5038780;28;20124;-84
2023/03/30 11:19:47;;;;;;;18.48;3.50;;;13.60;99.90;;;;;;5044643;28;20075;-84
2023/03/30 11:22:35;;;;;;;16.20;3.95;;;;;;;;;;5046987;28;20055;-84
2023/03/30 11:25:22;;;;;;;26.73;4.22;;;;;;;;;;5047739;28;20037;-85
2023/03/30 11:28:41;;;;;;;17.83;3.58;;;13.80;99.90;;;;;;5047555;28;20508;-86
2023/03/30 11:31:26;;;;;;;16.23;3.55;;;;;;;;;;5023820;28;20413;-86
2023/03/30 11:34:11;;;;;;;19.70;4.15;;;;;;;;;;5049192;28;20202;-84
2023/03/30 11:37:02;;;;;;;24.40;3.90;;;;;;;;;;5045882;28;20578;-84
2023/03/30 11:39:58;;;;;;;15.02;2.90;;;14.30;99.90;;;;;;5041134;28;20043;-83
2023/03/30 11:42:43;;;;;;;19.35;4.47;;;;;;;;;;5048020;28;20056;-84
2023/03/30 11:45:33;;;;;;;15.32;3.15;;;;;;;;;;5046715;28;20500;-84
2023/03/30 11:48:24;;;;;;;18.70;3.30;;;;;;;;;;5041563;28;20043;-83
2023/03/30 11:51:09;;;;;;;16.33;4.13;;;;;;;;;;5046759;28;20531;-83
2023/03/30 11:53:53;;;;;;;11.93;3.33;;;;;;;;;;5046000;28;20039;-86
2023/03/30 11:57:12;;;;;;;14.40;3.17;;;14.80;99.90;;;;;;5038924;28;20060;-83
2023/03/30 12:00:08;;;;;;;19.13;3.75;;;;;;;;;;5041316;28;20071;-84
2023/03/30 12:03:07;;;;;;;17.13;3.75;;;14.70;99.90;;;;;;5052846;28;20079;-83
2023/03/30 12:06:22;;;;;;;19.98;4.53;;;14.60;99.90;;;;;;5051958;28;20130;-84
2023/03/30 12:09:37;;;;;;;21.42;4.32;;;14.70;99.90;;;;;;5043047;28;20428;-84
2023/03/30 12:12:35;;;;;;;19.10;3.60;;;15.00;99.90;;;;;;5042889;28;20115;-83
2023/03/30 12:15:41;;;;;;;25.17;3.97;;;15.20;99.90;;;;;;5047043;28;20060;-84
2023/03/30 12:18:41;;;;;;;23.17;5.22;;;;;;;;;;5052426;28;20055;-84
2023/03/30 12:21:26;;;;;;;21.08;4.28;;;;;;;;;;5052540;28;20048;-85
2023/03/30 12:24:20;;;;;;;17.42;4.38;;;15.20;99.90;;;;;;5050973;28;20059;-84
2023/03/30 12:27:05;;;;;;;20.27;3.92;;;;;;;;;;5050915;28;20475;-84
2023/03/30 12:29:52;;;;;;;17.38;3.40;;;15.10;99.90;;;;;;5052029;28;20099;-84
2023/03/30 12:32:36;;;;;;;19.40;4.18;;;;;;;;;;5052443;28;20051;-84
2023/03/30 12:35:48;;;;;;;23.40;5.75;;;15.00;99.90;;;;;;5051842;28;20083;-85
2023/03/30 12:38:40;;;;;;;19.38;4.43;;;14.50;99.90;;;;;;5050844;28;20051;-83
2023/03/30 12:41:26;;;;;;;20.85;4.03;;;;;;;;;;5052031;28;20082;-83
2023/03/30 12:44:55;;;;;;;21.23;3.97;;;14.30;99.90;;;;;;5040088;28;20028;-85
2023/03/30 12:48:04;;;;;;;20.55;4.25;;;14.40;99.90;;;;;;5033860;28;20121;-84
2023/03/30 12:50:52;;;;;;;20.70;3.63;;;;;;;;;;5050911;28;20035;-84
2023/03/30 12:53:40;;;;;;;20.67;4.57;;;;;;;;;;5051105;28;20094;-84
2023/03/30 12:56:25;;;;;;;22.17;4.10;;;;;;;;;;5039077;28;20048;-84
2023/03/30 12:59:13;;;;;;;18.08;3.55;;;;;;;;;;5051508;28;20090;-84
2023/03/30 13:02:00;;;;;;;20.58;4.10;;;;;;;;;;5050900;28;20120;-84
2023/03/30 13:04:47;;;;;;;16.58;3.20;;;17.10;99.90;;;;;;5050630;28;20043;-84
2023/03/30 13:07:35;;;;;;;23.55;3.97;;;;;;;;;;5051820;28;20082;-85
2023/03/30 13:10:29;;;;;;;16.77;3.45;;;;;;;;;;5037840;28;20067;-85
2023/03/30 13:14:11;;;;;;;17.27;4.75;;;16.90;99.90;;;;;;5050023;28;20548;-85
2023/03/30 13:16:56;;;;;;;22.23;4.68;;;;;;;;;;5027220;28;20060;-84
2023/03/30 13:19:49;;;;;;;17.88;4.53;;;16.20;99.90;;;;;;5051476;28;20436;-85
2023/03/30 13:22:37;;;;;;;20.58;4.43;;;;;;;;;;5047721;28;20086;-85
2023/03/30 13:25:37;;;;;;;20.00;4.00;;;15.80;99.90;;;;;;5044962;28;20055;-84
2023/03/30 13:28:53;;;;;;;22.98;4.47;;;15.90;99.90;;;;;;5044261;28;20032;-84
2023/03/30 13:31:38;;;;;;;18.70;4.35;;;;;;;;;;5050265;28;20451;-84
2023/03/30 13:34:25;;;;;;;32.22;5.47;;;;;;;;;;5050976;28;20044;-84
2023/03/30 13:37:48;;;;;;;19.92;4.07;;;16.10;99.90;;;;;;5049672;28;20504;-84
2023/03/30 13:40:36;;;;;;;23.95;4.47;;;;;;;;;;5064111;28;20392;-84
2023/03/30 13:43:29;;;;;;;22.98;4.50;;;16.10;99.90;;;;;;5050862;28;20091;-84
2023/03/30 13:46:14;;;;;;;15.25;3.75;;;;;;;;;;5038699;28;20048;-84
2023/03/30 13:49:14;;;;;;;25.83;5.00;;;15.50;99.90;;;;;;5064276;28;20036;-84
2023/03/30 13:52:31;;;;;;;24.25;6.15;;;15.40;99.90;;;;;;5050132;28;20063;-84
2023/03/30 13:55:18;;;;;;;29.38;5.45;;;;;;;;;;5050432;28;20094;-85
2023/03/30 13:58:07;;;;;;;23.23;4.65;;;15.40;99.90;;;;;;5049405;28;20134;-84
2023/03/30 14:00:57;;;;;;;23.60;5.65;;;;;;;;;;5052255;28;20039;-84
2023/03/30 14:03:47;;;;;;;21.08;4.13;;;15.30;99.90;;;;;;5044239;28;20121;-84
2023/03/30 14:06:35;;;;;;;25.67;4.55;;;15.10;99.90;;;;;;5054490;28;20032;-84
2023/03/30 14:09:22;;;;;;;25.33;4.93;;;;;;;;;;5054405;28;20040;-84
2023/03/30 14:12:07;;;;;;;26.08;4.70;;;;;;;;;;5041952;28;20035;-86
2023/03/30 14:14:52;;;;;;;23.55;4.30;;;;;;;;;;5041030;28;20468;-84
2023/03/30 14:17:37;;;;;;;20.80;3.88;;;;;;;;;;5046225;28;20055;-84
2023/03/30 14:20:27;;;;;;;17.70;4.32;;;;;;;;;;5050800;28;20107;-88
2023/03/30 14:23:36;;;;;;;25.73;4.80;;;14.50;99.90;;;;;;5053376;28;20060;-89
2023/03/30 14:26:25;;;;;;;26.05;4.53;;;;;;;;;;5051358;28;20048;-88
2023/03/30 14:29:17;;;;;;;15.20;4.45;;;;;;;;;;5042042;28;20389;-88
2023/03/30 14:32:03;;;;;;;24.42;4.60;;;;;;;;;;5052032;28;20044;-88
2023/03/30 14:34:51;;;;;;;25.95;4.30;;;;;;;;;;5052251;28;20044;-85
2023/03/30 14:37:36;;;;;;;22.85;4.07;;;;;;;;;;5051428;28;20043;-83
2023/03/30 14:40:23;;;;;;;20.70;4.18;;;15.00;99.90;;;;;;5051278;28;20091;-84
2023/03/30 14:43:18;;;;;;;20.17;6.20;;;15.00;99.90;;;;;;5053261;28;20080;-84
2023/03/30 14:46:05;;;;;;;19.48;4.10;;;15.10;99.90;;;;;;5045604;28;20039;-84
2023/03/30 14:48:50;;;;;;;18.85;4.55;;;;;;;;;;5050298;28;20118;-84
2023/03/30 14:51:44;;;;;;;20.52;4.53;;;15.20;99.90;;;;;;5049038;28;20409;-85
2023/03/30 14:54:29;;;;;;;;;;;15.10;99.90;;;;;;5039053;28;20402;-84
2023/03/30 14:57:16;;;;;;;24.52;4.25;;;15.00;99.90;;;;;;5048556;28;19963;-86
2023/03/30 15:00:11;;;;;;;19.88;4.72;;;15.00;99.90;;;;;;5036145;28;20036;-85
2023/03/30 15:02:57;;;;;;;18.92;4.30;;;14.90;99.90;;;;;;5049903;28;20055;-85
2023/03/30 15:05:45;;;;;;;21.20;4.60;;;;;;;;;;5045057;28;20039;-85
2023/03/30 15:08:31;;;;;;;23.00;4.80;;;;;;;;;;5060178;28;20405;-85
2023/03/30 15:11:25;;;;;;;27.40;5.03;;;14.50;99.90;;;;;;5047914;28;20485;-84
2023/03/30 15:14:15;;;;;;;19.55;4.13;;;14.40;99.90;;;;;;5034991;28;20041;-85
2023/03/30 15:17:00;;;;;;;19.50;5.07;;;;;;;;;;5033658;28;20552;-86
2023/03/30 15:19:47;;;;;;;28.55;5.25;;;14.30;99.90;;;;;;5042398;28;20063;-87
2023/03/30 15:22:37;;;;;;;25.25;5.00;;;;;;;;;;5061605;28;20043;-85
2023/03/30 15:25:35;;;;;;;22.90;5.00;;;14.00;99.90;;;;;;5044083;28;20033;-85
2023/03/30 15:28:20;;;;;;;28.90;5.47;;;;;;;;;;5047789;28;20059;-88
2023/03/30 15:31:05;;;;;;;27.67;4.70;;;;;;;;;;5041897;28;20045;-86
2023/03/30 15:33:52;;;;;;;27.98;5.85;;;14.20;99.90;;;;;;5053781;28;20040;-85
2023/03/30 15:36:39;;;;;;;21.83;4.90;;;14.20;99.90;;;;;;5039035;28;20116;-86
2023/03/30 15:39:23;;;;;;;22.27;5.55;;;;;;;;;;5040445;28;20112;-86
2023/03/30 15:42:08;;;;;;;23.83;6.03;;;14.10;99.90;;;;;;5042142;28;20083;-85
2023/03/30 15:45:11;;;;;;;28.70;5.95;;;14.10;99.90;;;;;;5043370;28;20167;-86
2023/03/30 15:47:56;;;;;;;33.72;5.47;;;;;;;;;;5053576;28;20051;-86
2023/03/30 15:50:44;;;;;;;25.60;5.25;;;14.10;99.90;;;;;;5054004;28;20117;-85
2023/03/30 15:53:34;;;;;;;31.02;4.93;;;14.10;99.90;;;;;;5043749;28;20107;-87